Terminal Aerodrome Forecast
Issued by NWS Bismarck, ND

Home | Current Version | Previous Version | Graphics & Text | Print | Product List | Glossary On
Versions: 1 2 3 4 5 6 7 8 9 10 11 12 13 14 15 16 17 18 19
497
FTUS43 KBIS 200958 AAB
TAFISN
TAF AMD
KISN 200958Z 2010/2106 33009KT 1/2SM FG OVC004
     FM201500 35012KT P6SM BKN008
     FM201700 36012KT P6SM SCT008
     FM202100 06007KT P6SM SKC=

USA.gov is the U.S. government's official web portal to all federal, state and local government web resources and services.